sensor_id;sensor_type;location;lat;lon;timestamp;P1;durP1;ratioP1;P2;durP2;ratioP2
14708;SDS011;7445;50.774;4.944;2022-12-10T08:29:07;74.67;;;33.93;;
14708;SDS011;7445;50.774;4.944;2022-12-10T08:31:33;73.80;;;34.63;;
14708;SDS011;7445;50.774;4.944;2022-12-10T08:33:58;77.77;;;34.17;;
14708;SDS011;7445;50.774;4.944;2022-12-10T08:36:24;71.73;;;32.80;;
14708;SDS011;7445;50.774;4.944;2022-12-10T08:38:49;71.27;;;30.33;;
14708;SDS011;7445;50.774;4.944;2022-12-10T08:41:17;65.43;;;30.33;;
14708;SDS011;7445;50.774;4.944;2022-12-10T08:43:47;67.07;;;32.63;;
14708;SDS011;7445;50.774;4.944;2022-12-10T08:46:13;80.70;;;35.40;;
14708;SDS011;7445;50.774;4.944;2022-12-10T08:48:40;70.10;;;31.80;;
14708;SDS011;7445;50.774;4.944;2022-12-10T08:51:07;61.43;;;30.20;;
14708;SDS011;7445;50.774;4.944;2022-12-10T08:53:34;65.63;;;30.23;;
14708;SDS011;7445;50.774;4.944;2022-12-10T08:56:00;67.50;;;30.80;;
14708;SDS011;7445;50.774;4.944;2022-12-10T08:58:25;68.03;;;32.47;;
14708;SDS011;7445;50.774;4.944;2022-12-10T09:00:51;62.50;;;30.10;;
14708;SDS011;7445;50.774;4.944;2022-12-10T09:03:17;56.17;;;27.00;;
14708;SDS011;7445;50.774;4.944;2022-12-10T09:05:43;62.40;;;30.43;;
14708;SDS011;7445;50.774;4.944;2022-12-10T09:08:10;67.57;;;29.63;;
14708;SDS011;7445;50.774;4.944;2022-12-10T09:10:36;72.00;;;29.47;;
14708;SDS011;7445;50.774;4.944;2022-12-10T09:13:03;58.37;;;27.77;;
14708;SDS011;7445;50.774;4.944;2022-12-10T09:15:29;56.93;;;28.13;;
14708;SDS011;7445;50.774;4.944;2022-12-10T09:17:54;68.40;;;29.23;;
14708;SDS011;7445;50.774;4.944;2022-12-10T09:20:20;60.97;;;26.83;;
14708;SDS011;7445;50.774;4.944;2022-12-10T09:22:46;52.80;;;25.73;;
14708;SDS011;7445;50.774;4.944;2022-12-10T09:25:11;52.40;;;25.10;;
14708;SDS011;7445;50.774;4.944;2022-12-10T09:27:40;48.80;;;26.03;;
14708;SDS011;7445;50.774;4.944;2022-12-10T09:30:06;53.00;;;25.10;;
14708;SDS011;7445;50.774;4.944;2022-12-10T09:32:33;51.73;;;26.17;;
14708;SDS011;7445;50.774;4.944;2022-12-10T09:35:00;62.53;;;27.80;;
14708;SDS011;7445;50.774;4.944;2022-12-10T09:37:26;64.47;;;31.07;;
14708;SDS011;7445;50.774;4.944;2022-12-10T09:39:52;71.23;;;30.20;;
14708;SDS011;7445;50.774;4.944;2022-12-10T09:42:30;63.93;;;28.97;;
14708;SDS011;7445;50.774;4.944;2022-12-10T09:48:01;61.33;;;31.40;;
14708;SDS011;7445;50.774;4.944;2022-12-10T09:50:55;59.50;;;26.67;;
14708;SDS011;7445;50.774;4.944;2022-12-10T09:53:46;58.63;;;25.93;;
14708;SDS011;7445;50.774;4.944;2022-12-10T09:56:19;56.83;;;27.40;;
14708;SDS011;7445;50.774;4.944;2022-12-10T09:58:48;49.47;;;26.70;;
14708;SDS011;7445;50.774;4.944;2022-12-10T10:01:14;52.60;;;26.40;;
14708;SDS011;7445;50.774;4.944;2022-12-10T10:03:44;55.43;;;26.20;;
14708;SDS011;7445;50.774;4.944;2022-12-10T10:06:11;59.33;;;27.30;;
14708;SDS011;7445;50.774;4.944;2022-12-10T10:08:39;54.60;;;28.03;;
14708;SDS011;7445;50.774;4.944;2022-12-10T10:11:11;55.80;;;25.57;;
14708;SDS011;7445;50.774;4.944;2022-12-10T10:13:45;58.17;;;28.10;;
14708;SDS011;7445;50.774;4.944;2022-12-10T10:18:51;54.73;;;25.57;;
14708;SDS011;7445;50.774;4.944;2022-12-10T10:21:35;62.17;;;27.90;;
14708;SDS011;7445;50.774;4.944;2022-12-10T10:24:04;62.63;;;31.33;;
14708;SDS011;7445;50.774;4.944;2022-12-10T10:26:31;57.37;;;27.33;;
14708;SDS011;7445;50.774;4.944;2022-12-10T10:29:02;54.40;;;29.27;;
14708;SDS011;7445;50.774;4.944;2022-12-10T10:31:33;52.27;;;26.67;;
14708;SDS011;7445;50.774;4.944;2022-12-10T10:34:00;53.43;;;28.47;;
14708;SDS011;7445;50.774;4.944;2022-12-10T10:36:33;55.57;;;26.17;;
14708;SDS011;7445;50.774;4.944;2022-12-10T10:41:41;58.20;;;25.80;;
14708;SDS011;7445;50.774;4.944;2022-12-10T10:44:16;54.33;;;27.73;;
14708;SDS011;7445;50.774;4.944;2022-12-10T10:46:45;58.50;;;28.40;;
14708;SDS011;7445;50.774;4.944;2022-12-10T10:49:25;54.80;;;27.50;;
14708;SDS011;7445;50.774;4.944;2022-12-10T10:52:00;57.97;;;27.50;;
14708;SDS011;7445;50.774;4.944;2022-12-10T10:57:03;60.47;;;29.37;;
14708;SDS011;7445;50.774;4.944;2022-12-10T10:59:35;55.17;;;27.77;;
14708;SDS011;7445;50.774;4.944;2022-12-10T11:02:24;72.07;;;27.27;;
14708;SDS011;7445;50.774;4.944;2022-12-10T11:04:49;57.50;;;27.30;;
14708;SDS011;7445;50.774;4.944;2022-12-10T11:07:24;47.43;;;26.00;;
14708;SDS011;7445;50.774;4.944;2022-12-10T11:09:53;50.40;;;22.70;;
14708;SDS011;7445;50.774;4.944;2022-12-10T11:12:21;45.27;;;24.10;;
14708;SDS011;7445;50.774;4.944;2022-12-10T11:14:48;47.10;;;25.03;;
14708;SDS011;7445;50.774;4.944;2022-12-10T11:19:43;49.50;;;26.53;;
14708;SDS011;7445;50.774;4.944;2022-12-10T11:22:22;52.17;;;27.10;;
14708;SDS011;7445;50.774;4.944;2022-12-10T11:24:49;58.83;;;29.33;;
14708;SDS011;7445;50.774;4.944;2022-12-10T11:27:18;55.00;;;27.20;;
14708;SDS011;7445;50.774;4.944;2022-12-10T11:30:06;55.23;;;27.00;;
14708;SDS011;7445;50.774;4.944;2022-12-10T11:32:45;57.53;;;27.83;;
14708;SDS011;7445;50.774;4.944;2022-12-10T11:35:17;54.37;;;27.10;;
14708;SDS011;7445;50.774;4.944;2022-12-10T11:37:47;58.83;;;27.40;;
14708;SDS011;7445;50.774;4.944;2022-12-10T11:43:05;45.30;;;26.33;;
14708;SDS011;7445;50.774;4.944;2022-12-10T11:46:13;49.17;;;22.03;;
14708;SDS011;7445;50.774;4.944;2022-12-10T11:48:56;45.33;;;21.73;;
14708;SDS011;7445;50.774;4.944;2022-12-10T11:57:25;50.07;;;24.40;;
14708;SDS011;7445;50.774;4.944;2022-12-10T12:00:25;36.90;;;23.13;;
14708;SDS011;7445;50.774;4.944;2022-12-10T12:05:42;48.50;;;24.67;;
14708;SDS011;7445;50.774;4.944;2022-12-10T12:11:35;47.00;;;24.60;;
14708;SDS011;7445;50.774;4.944;2022-12-10T12:17:00;48.17;;;25.23;;
14708;SDS011;7445;50.774;4.944;2022-12-10T12:19:34;57.20;;;29.33;;
14708;SDS011;7445;50.774;4.944;2022-12-10T12:22:11;50.70;;;25.67;;
14708;SDS011;7445;50.774;4.944;2022-12-10T12:24:41;55.60;;;29.77;;
14708;SDS011;7445;50.774;4.944;2022-12-10T12:27:16;54.30;;;28.57;;
14708;SDS011;7445;50.774;4.944;2022-12-10T12:30:10;58.37;;;27.33;;
14708;SDS011;7445;50.774;4.944;2022-12-10T12:49:53;44.73;;;25.43;;
14708;SDS011;7445;50.774;4.944;2022-12-10T12:52:43;49.13;;;24.67;;
14708;SDS011;7445;50.774;4.944;2022-12-10T12:55:18;44.10;;;24.10;;
14708;SDS011;7445;50.774;4.944;2022-12-10T12:57:51;46.10;;;25.27;;
14708;SDS011;7445;50.774;4.944;2022-12-10T13:00:30;51.10;;;27.80;;
14708;SDS011;7445;50.774;4.944;2022-12-10T13:06:14;43.10;;;25.33;;
14708;SDS011;7445;50.774;4.944;2022-12-10T13:08:58;47.20;;;26.20;;
14708;SDS011;7445;50.774;4.944;2022-12-10T13:11:44;51.90;;;25.10;;
14708;SDS011;7445;50.774;4.944;2022-12-10T13:14:16;51.90;;;27.23;;
14708;SDS011;7445;50.774;4.944;2022-12-10T13:19:32;55.00;;;27.70;;
14708;SDS011;7445;50.774;4.944;2022-12-10T13:22:11;46.07;;;25.03;;
14708;SDS011;7445;50.774;4.944;2022-12-10T13:25:05;51.43;;;26.87;;
14708;SDS011;7445;50.774;4.944;2022-12-10T13:27:56;52.60;;;25.80;;
14708;SDS011;7445;50.774;4.944;2022-12-10T13:30:40;49.40;;;28.67;;
14708;SDS011;7445;50.774;4.944;2022-12-10T13:33:16;48.57;;;26.53;;
14708;SDS011;7445;50.774;4.944;2022-12-10T13:35:56;47.47;;;25.37;;
14708;SDS011;7445;50.774;4.944;2022-12-10T13:38:25;43.30;;;23.37;;
14708;SDS011;7445;50.774;4.944;2022-12-10T13:41:02;42.00;;;24.17;;
14708;SDS011;7445;50.774;4.944;2022-12-10T13:43:52;39.47;;;24.10;;
14708;SDS011;7445;50.774;4.944;2022-12-10T13:50:15;44.20;;;22.67;;
14708;SDS011;7445;50.774;4.944;2022-12-10T14:00:57;46.20;;;25.87;;
14708;SDS011;7445;50.774;4.944;2022-12-10T14:06:19;48.20;;;25.33;;
14708;SDS011;7445;50.774;4.944;2022-12-10T14:08:54;48.80;;;27.23;;
14708;SDS011;7445;50.774;4.944;2022-12-10T14:11:21;51.23;;;28.13;;
14708;SDS011;7445;50.774;4.944;2022-12-10T14:13:57;52.43;;;27.27;;
14708;SDS011;7445;50.774;4.944;2022-12-10T14:16:26;46.47;;;24.93;;
14708;SDS011;7445;50.774;4.944;2022-12-10T14:18:57;49.50;;;27.50;;
14708;SDS011;7445;50.774;4.944;2022-12-10T14:21:25;46.70;;;26.00;;
14708;SDS011;7445;50.774;4.944;2022-12-10T14:23:52;53.10;;;25.30;;
14708;SDS011;7445;50.774;4.944;2022-12-10T14:26:25;49.90;;;26.43;;
14708;SDS011;7445;50.774;4.944;2022-12-10T14:28:55;53.23;;;28.43;;
14708;SDS011;7445;50.774;4.944;2022-12-10T14:31:34;55.33;;;29.10;;
14708;SDS011;7445;50.774;4.944;2022-12-10T14:34:06;52.77;;;28.60;;
14708;SDS011;7445;50.774;4.944;2022-12-10T14:36:34;53.90;;;30.23;;
14708;SDS011;7445;50.774;4.944;2022-12-10T14:39:10;52.53;;;27.50;;
14708;SDS011;7445;50.774;4.944;2022-12-10T14:41:40;59.50;;;29.43;;
14708;SDS011;7445;50.774;4.944;2022-12-10T14:44:08;53.97;;;27.53;;
14708;SDS011;7445;50.774;4.944;2022-12-10T14:46:38;50.60;;;27.13;;
14708;SDS011;7445;50.774;4.944;2022-12-10T14:49:04;51.10;;;28.33;;
14708;SDS011;7445;50.774;4.944;2022-12-10T14:51:32;63.50;;;29.37;;
14708;SDS011;7445;50.774;4.944;2022-12-10T14:53:58;53.73;;;26.97;;
14708;SDS011;7445;50.774;4.944;2022-12-10T14:56:31;59.43;;;28.43;;
14708;SDS011;7445;50.774;4.944;2022-12-10T14:59:16;60.53;;;29.00;;
14708;SDS011;7445;50.774;4.944;2022-12-10T15:01:49;55.13;;;28.17;;
14708;SDS011;7445;50.774;4.944;2022-12-10T15:04:24;51.47;;;27.70;;
14708;SDS011;7445;50.774;4.944;2022-12-10T15:07:03;61.97;;;33.33;;
14708;SDS011;7445;50.774;4.944;2022-12-10T15:09:32;55.53;;;29.37;;
14708;SDS011;7445;50.774;4.944;2022-12-10T15:12:00;53.37;;;27.13;;
14708;SDS011;7445;50.774;4.944;2022-12-10T15:14:26;59.90;;;31.07;;
14708;SDS011;7445;50.774;4.944;2022-12-10T15:17:00;63.08;;;31.95;;
14708;SDS011;7445;50.774;4.944;2022-12-10T15:19:33;53.80;;;26.77;;
14708;SDS011;7445;50.774;4.944;2022-12-10T15:22:31;54.87;;;27.33;;
14708;SDS011;7445;50.774;4.944;2022-12-10T15:27:58;53.63;;;27.53;;
14708;SDS011;7445;50.774;4.944;2022-12-10T15:30:41;55.20;;;28.93;;
14708;SDS011;7445;50.774;4.944;2022-12-10T15:33:21;49.67;;;25.90;;
14708;SDS011;7445;50.774;4.944;2022-12-10T15:36:05;49.80;;;25.97;;
14708;SDS011;7445;50.774;4.944;2022-12-10T15:38:57;57.70;;;27.47;;
14708;SDS011;7445;50.774;4.944;2022-12-10T15:44:36;51.83;;;26.57;;
14708;SDS011;7445;50.774;4.944;2022-12-10T15:47:17;59.97;;;29.70;;
14708;SDS011;7445;50.774;4.944;2022-12-10T15:49:51;50.47;;;24.30;;
14708;SDS011;7445;50.774;4.944;2022-12-10T15:52:20;49.07;;;25.23;;
14708;SDS011;7445;50.774;4.944;2022-12-10T15:54:56;60.23;;;28.83;;
14708;SDS011;7445;50.774;4.944;2022-12-10T15:59:59;55.43;;;27.47;;
14708;SDS011;7445;50.774;4.944;2022-12-10T16:05:24;56.53;;;27.63;;
14708;SDS011;7445;50.774;4.944;2022-12-10T16:07:48;58.53;;;26.83;;
14708;SDS011;7445;50.774;4.944;2022-12-10T16:10:17;69.90;;;30.90;;
14708;SDS011;7445;50.774;4.944;2022-12-10T16:12:48;63.23;;;31.30;;
14708;SDS011;7445;50.774;4.944;2022-12-10T16:15:23;64.70;;;29.13;;
14708;SDS011;7445;50.774;4.944;2022-12-10T16:17:50;70.97;;;31.07;;
14708;SDS011;7445;50.774;4.944;2022-12-10T16:20:24;56.27;;;27.50;;
14708;SDS011;7445;50.774;4.944;2022-12-10T16:22:54;66.03;;;31.17;;
14708;SDS011;7445;50.774;4.944;2022-12-10T16:25:22;56.90;;;25.47;;
14708;SDS011;7445;50.774;4.944;2022-12-10T16:27:49;60.53;;;26.73;;
14708;SDS011;7445;50.774;4.944;2022-12-10T16:30:17;49.90;;;27.43;;
14708;SDS011;7445;50.774;4.944;2022-12-10T16:32:45;60.27;;;30.20;;
14708;SDS011;7445;50.774;4.944;2022-12-10T16:35:11;51.27;;;26.40;;
14708;SDS011;7445;50.774;4.944;2022-12-10T16:37:39;61.93;;;27.20;;
14708;SDS011;7445;50.774;4.944;2022-12-10T16:40:09;51.07;;;25.23;;
14708;SDS011;7445;50.774;4.944;2022-12-10T16:42:36;73.10;;;30.60;;
14708;SDS011;7445;50.774;4.944;2022-12-10T16:45:05;47.27;;;24.57;;
14708;SDS011;7445;50.774;4.944;2022-12-10T16:47:39;54.37;;;25.17;;
14708;SDS011;7445;50.774;4.944;2022-12-10T16:50:05;50.87;;;26.07;;
14708;SDS011;7445;50.774;4.944;2022-12-10T16:52:32;54.27;;;26.17;;
14708;SDS011;7445;50.774;4.944;2022-12-10T16:54:57;53.90;;;26.20;;
14708;SDS011;7445;50.774;4.944;2022-12-10T16:57:23;56.00;;;27.40;;
14708;SDS011;7445;50.774;4.944;2022-12-10T16:59:48;43.67;;;26.13;;
14708;SDS011;7445;50.774;4.944;2022-12-10T17:02:15;50.07;;;26.70;;
14708;SDS011;7445;50.774;4.944;2022-12-10T17:04:42;57.67;;;29.07;;
14708;SDS011;7445;50.774;4.944;2022-12-10T17:07:09;52.83;;;26.40;;
14708;SDS011;7445;50.774;4.944;2022-12-10T17:09:35;48.07;;;25.27;;
14708;SDS011;7445;50.774;4.944;2022-12-10T17:12:01;57.03;;;25.67;;
14708;SDS011;7445;50.774;4.944;2022-12-10T17:14:28;55.47;;;27.03;;
14708;SDS011;7445;50.774;4.944;2022-12-10T17:17:10;53.83;;;26.50;;
14708;SDS011;7445;50.774;4.944;2022-12-10T17:19:37;45.87;;;24.23;;
14708;SDS011;7445;50.774;4.944;2022-12-10T17:22:05;52.80;;;27.83;;
14708;SDS011;7445;50.774;4.944;2022-12-10T17:24:35;52.93;;;26.70;;
14708;SDS011;7445;50.774;4.944;2022-12-10T17:27:03;57.37;;;27.97;;
14708;SDS011;7445;50.774;4.944;2022-12-10T17:29:32;57.07;;;25.93;;
14708;SDS011;7445;50.774;4.944;2022-12-10T17:32:13;52.03;;;27.73;;
14708;SDS011;7445;50.774;4.944;2022-12-10T17:34:42;54.50;;;25.17;;
14708;SDS011;7445;50.774;4.944;2022-12-10T17:37:13;52.07;;;25.37;;
14708;SDS011;7445;50.774;4.944;2022-12-10T17:39:41;56.97;;;27.00;;
14708;SDS011;7445;50.774;4.944;2022-12-10T17:42:08;49.17;;;26.27;;
14708;SDS011;7445;50.774;4.944;2022-12-10T17:44:34;52.43;;;26.60;;
14708;SDS011;7445;50.774;4.944;2022-12-10T17:47:01;53.73;;;27.23;;
14708;SDS011;7445;50.774;4.944;2022-12-10T17:49:42;57.13;;;27.10;;
14708;SDS011;7445;50.774;4.944;2022-12-10T17:52:11;53.47;;;29.83;;
14708;SDS011;7445;50.774;4.944;2022-12-10T17:54:36;58.50;;;29.13;;
14708;SDS011;7445;50.774;4.944;2022-12-10T17:57:02;52.23;;;29.80;;
14708;SDS011;7445;50.774;4.944;2022-12-10T17:59:30;49.23;;;26.33;;
14708;SDS011;7445;50.774;4.944;2022-12-10T18:01:57;55.63;;;30.70;;
14708;SDS011;7445;50.774;4.944;2022-12-10T18:04:22;61.50;;;29.80;;
14708;SDS011;7445;50.774;4.944;2022-12-10T18:06:48;55.03;;;27.73;;
14708;SDS011;7445;50.774;4.944;2022-12-10T18:09:13;58.03;;;29.57;;
14708;SDS011;7445;50.774;4.944;2022-12-10T18:11:40;52.93;;;29.77;;
14708;SDS011;7445;50.774;4.944;2022-12-10T18:14:08;54.13;;;28.43;;
14708;SDS011;7445;50.774;4.944;2022-12-10T18:16:34;55.03;;;29.90;;
14708;SDS011;7445;50.774;4.944;2022-12-10T18:19:01;58.87;;;30.73;;
14708;SDS011;7445;50.774;4.944;2022-12-10T18:21:31;50.27;;;29.27;;
14708;SDS011;7445;50.774;4.944;2022-12-10T18:23:58;49.20;;;27.87;;
14708;SDS011;7445;50.774;4.944;2022-12-10T18:26:24;57.00;;;30.70;;
14708;SDS011;7445;50.774;4.944;2022-12-10T18:28:55;56.13;;;30.30;;
14708;SDS011;7445;50.774;4.944;2022-12-10T18:31:24;55.23;;;28.93;;
14708;SDS011;7445;50.774;4.944;2022-12-10T18:33:55;59.47;;;30.60;;
14708;SDS011;7445;50.774;4.944;2022-12-10T18:36:25;61.37;;;32.67;;
14708;SDS011;7445;50.774;4.944;2022-12-10T18:38:53;55.27;;;28.63;;
14708;SDS011;7445;50.774;4.944;2022-12-10T18:41:20;55.07;;;28.90;;
14708;SDS011;7445;50.774;4.944;2022-12-10T18:43:46;54.63;;;29.37;;
14708;SDS011;7445;50.774;4.944;2022-12-10T18:46:17;62.43;;;31.07;;
14708;SDS011;7445;50.774;4.944;2022-12-10T18:48:48;61.23;;;31.27;;
14708;SDS011;7445;50.774;4.944;2022-12-10T18:51:14;59.30;;;31.87;;
14708;SDS011;7445;50.774;4.944;2022-12-10T18:53:43;60.13;;;31.83;;
14708;SDS011;7445;50.774;4.944;2022-12-10T18:56:11;51.53;;;29.30;;
14708;SDS011;7445;50.774;4.944;2022-12-10T18:58:40;48.67;;;27.27;;
14708;SDS011;7445;50.774;4.944;2022-12-10T19:01:06;59.47;;;28.00;;
14708;SDS011;7445;50.774;4.944;2022-12-10T19:03:33;53.80;;;27.53;;
14708;SDS011;7445;50.774;4.944;2022-12-10T19:05:59;53.17;;;29.07;;
14708;SDS011;7445;50.774;4.944;2022-12-10T19:08:25;54.03;;;26.80;;
14708;SDS011;7445;50.774;4.944;2022-12-10T19:10:52;54.72;;;29.27;;
14708;SDS011;7445;50.774;4.944;2022-12-10T19:13:18;52.37;;;32.80;;
14708;SDS011;7445;50.774;4.944;2022-12-10T19:15:44;44.40;;;29.10;;
14708;SDS011;7445;50.774;4.944;2022-12-10T19:18:10;46.77;;;27.50;;
14708;SDS011;7445;50.774;4.944;2022-12-10T19:20:38;50.00;;;28.40;;
14708;SDS011;7445;50.774;4.944;2022-12-10T19:23:04;49.53;;;28.23;;
14708;SDS011;7445;50.774;4.944;2022-12-10T19:25:30;51.40;;;28.17;;
14708;SDS011;7445;50.774;4.944;2022-12-10T19:27:57;43.17;;;26.00;;
14708;SDS011;7445;50.774;4.944;2022-12-10T19:30:24;46.33;;;26.10;;
14708;SDS011;7445;50.774;4.944;2022-12-10T19:32:51;47.53;;;27.07;;
14708;SDS011;7445;50.774;4.944;2022-12-10T19:35:18;38.47;;;23.40;;
14708;SDS011;7445;50.774;4.944;2022-12-10T19:37:46;47.03;;;28.20;;
14708;SDS011;7445;50.774;4.944;2022-12-10T19:40:19;51.23;;;26.37;;
14708;SDS011;7445;50.774;4.944;2022-12-10T19:42:47;47.80;;;26.70;;
14708;SDS011;7445;50.774;4.944;2022-12-10T19:45:13;49.73;;;25.90;;
14708;SDS011;7445;50.774;4.944;2022-12-10T19:47:40;46.10;;;25.67;;
14708;SDS011;7445;50.774;4.944;2022-12-10T19:50:06;40.73;;;23.17;;
14708;SDS011;7445;50.774;4.944;2022-12-10T19:52:38;44.60;;;24.13;;
14708;SDS011;7445;50.774;4.944;2022-12-10T19:55:04;43.07;;;24.80;;
14708;SDS011;7445;50.774;4.944;2022-12-10T19:57:29;42.43;;;24.50;;
14708;SDS011;7445;50.774;4.944;2022-12-10T19:59:55;43.40;;;23.80;;
14708;SDS011;7445;50.774;4.944;2022-12-10T20:02:21;47.30;;;25.83;;
14708;SDS011;7445;50.774;4.944;2022-12-10T20:04:46;42.90;;;23.93;;
14708;SDS011;7445;50.774;4.944;2022-12-10T20:07:12;48.87;;;23.53;;
14708;SDS011;7445;50.774;4.944;2022-12-10T20:09:37;42.10;;;20.57;;
14708;SDS011;7445;50.774;4.944;2022-12-10T20:12:03;48.73;;;23.47;;
14708;SDS011;7445;50.774;4.944;2022-12-10T20:14:29;44.83;;;24.20;;
14708;SDS011;7445;50.774;4.944;2022-12-10T20:16:54;46.80;;;23.93;;
14708;SDS011;7445;50.774;4.944;2022-12-10T20:19:21;43.67;;;22.63;;
14708;SDS011;7445;50.774;4.944;2022-12-10T20:21:48;48.63;;;24.97;;
14708;SDS011;7445;50.774;4.944;2022-12-10T20:24:14;37.53;;;21.70;;
14708;SDS011;7445;50.774;4.944;2022-12-10T20:26:40;47.53;;;24.63;;
14708;SDS011;7445;50.774;4.944;2022-12-10T20:29:11;44.77;;;24.43;;
14708;SDS011;7445;50.774;4.944;2022-12-10T20:31:38;48.37;;;25.07;;
14708;SDS011;7445;50.774;4.944;2022-12-10T20:34:05;49.60;;;26.07;;
14708;SDS011;7445;50.774;4.944;2022-12-10T20:36:33;51.97;;;25.77;;
14708;SDS011;7445;50.774;4.944;2022-12-10T20:39:02;57.53;;;26.33;;
14708;SDS011;7445;50.774;4.944;2022-12-10T20:41:28;46.60;;;24.83;;
14708;SDS011;7445;50.774;4.944;2022-12-10T20:43:54;46.10;;;23.23;;
14708;SDS011;7445;50.774;4.944;2022-12-10T20:46:38;49.30;;;26.47;;
14708;SDS011;7445;50.774;4.944;2022-12-10T20:49:04;49.27;;;25.57;;
14708;SDS011;7445;50.774;4.944;2022-12-10T20:51:30;59.47;;;33.70;;
14708;SDS011;7445;50.774;4.944;2022-12-10T20:53:56;49.47;;;26.60;;
14708;SDS011;7445;50.774;4.944;2022-12-10T20:56:23;47.60;;;26.77;;
14708;SDS011;7445;50.774;4.944;2022-12-10T20:58:49;46.80;;;25.83;;
14708;SDS011;7445;50.774;4.944;2022-12-10T21:01:16;54.97;;;26.37;;
14708;SDS011;7445;50.774;4.944;2022-12-10T21:03:42;50.87;;;27.20;;
14708;SDS011;7445;50.774;4.944;2022-12-10T21:06:18;53.37;;;27.07;;
14708;SDS011;7445;50.774;4.944;2022-12-10T21:08:50;46.43;;;25.60;;
14708;SDS011;7445;50.774;4.944;2022-12-10T21:11:16;57.13;;;25.90;;
14708;SDS011;7445;50.774;4.944;2022-12-10T21:13:43;50.23;;;26.90;;
14708;SDS011;7445;50.774;4.944;2022-12-10T21:16:10;48.63;;;27.00;;
14708;SDS011;7445;50.774;4.944;2022-12-10T21:18:38;55.00;;;27.30;;
14708;SDS011;7445;50.774;4.944;2022-12-10T21:21:05;47.50;;;27.77;;
14708;SDS011;7445;50.774;4.944;2022-12-10T21:23:34;48.60;;;27.10;;
14708;SDS011;7445;50.774;4.944;2022-12-10T21:26:00;50.13;;;26.57;;
14708;SDS011;7445;50.774;4.944;2022-12-10T21:28:25;53.00;;;25.30;;
14708;SDS011;7445;50.774;4.944;2022-12-10T21:30:51;54.30;;;28.60;;
14708;SDS011;7445;50.774;4.944;2022-12-10T21:33:18;51.73;;;27.47;;
14708;SDS011;7445;50.774;4.944;2022-12-10T21:35:46;53.05;;;31.50;;
14708;SDS011;7445;50.774;4.944;2022-12-10T21:38:19;50.33;;;27.83;;
14708;SDS011;7445;50.774;4.944;2022-12-10T21:40:48;43.87;;;27.00;;
14708;SDS011;7445;50.774;4.944;2022-12-10T21:43:17;46.23;;;26.27;;
14708;SDS011;7445;50.774;4.944;2022-12-10T21:45:46;52.73;;;27.90;;
14708;SDS011;7445;50.774;4.944;2022-12-10T21:48:15;48.33;;;26.70;;
14708;SDS011;7445;50.774;4.944;2022-12-10T21:50:45;48.77;;;26.43;;
14708;SDS011;7445;50.774;4.944;2022-12-10T21:53:12;51.10;;;26.17;;
